Janesville, Illinois
Current Conditions -  °F | °C
As of 9:53 AM on Monday 24 Nov 2014 (Local Time) from KMTO Reporting Station
Overcast Overcast  
Wind Chill: 26°   Ceiling: 1500
Heat Index: 36°   Visibility: 10mi
Dew Point: 32°   Wind: 16mph
Humidity: 86%   Direction: 250°WSW
Pressure: 29.54"   Gusts: 25mph
Location:  39.37°N, 88.24°W
Report Text: KMTO 241553Z AUTO 25014G22KT 10SM OVC015 02/00 A2954 RMK AO2 PK WND 24031/1501 SLP005 T00220000
Loading
Personal Weather Stations






























Interactive Weather Map New forecast layout! Learn more

10-Day Weather Forecast

Advertisements
Track Severe Weather on mobile